Terminal Aerodrome Forecast
Issued by NWS Wilmington, OH

Current Version | Previous Version | Graphics & Text | Print | Product List | Glossary On
Versions: 1 2 3 4 5 6 7 8 9 10 11 12 13 14 15 16 17 18 19 20 21 22 23 24 25 26 27
000
FTUS41 KILN 230500
TAFCVG
TAF
KCVG 230536Z 2306/2412 23005KT P6SM SCT250
     FM231000 24005KT P6SM SCT080 BKN200
     FM231400 26008KT P6SM VCTS BKN050CB
     FM231700 29010KT 5SM -SHRA BR VCTS OVC045CB
     FM232100 32010KT P6SM BKN060
     FM240000 01008KT P6SM BKN100
     FM240600 02010KT P6SM SCT100=

USA.gov is the U.S. government's official web portal to all federal, state and local government web resources and services.